createdAt,value
2019-05-13T00:01:54.130Z,3.58
2019-05-13T00:04:24.191Z,5.78
2019-05-13T00:06:55.197Z,5.87
2019-05-13T00:09:24.614Z,5.80
2019-05-13T00:11:54.127Z,6.97
2019-05-13T00:14:23.972Z,3.67
2019-05-13T00:16:53.805Z,7.25
2019-05-13T00:19:23.418Z,5.17
2019-05-13T00:21:54.620Z,5.83
2019-05-13T00:24:24.287Z,7.37
2019-05-13T00:26:53.826Z,6.50
2019-05-13T00:29:23.432Z,5.08
2019-05-13T00:31:54.005Z,6.37
2019-05-13T00:34:24.340Z,5.35
2019-05-13T00:37:07.026Z,5.70
2019-05-13T00:39:24.843Z,3.62
2019-05-13T00:41:54.149Z,3.65
2019-05-13T00:44:24.427Z,4.00
2019-05-13T00:46:53.933Z,3.77
2019-05-13T00:49:23.889Z,6.62
2019-05-13T00:51:53.511Z,3.87
2019-05-13T00:54:23.673Z,3.80
2019-05-13T00:56:54.783Z,4.03
2019-05-13T00:59:24.321Z,6.37
2019-05-13T01:01:53.670Z,2.98
2019-05-13T01:04:23.309Z,5.17
2019-05-13T01:06:53.779Z,7.97
2019-05-13T01:09:23.765Z,5.85
2019-05-13T01:11:53.730Z,5.10
2019-05-13T01:14:23.470Z,3.87
2019-05-13T01:16:54.411Z,9.60
2019-05-13T01:19:23.831Z,2.98
2019-05-13T01:21:54.053Z,10.38
2019-05-13T01:24:24.371Z,5.53
2019-05-13T01:26:54.225Z,6.87
2019-05-13T01:29:23.808Z,5.25
2019-05-13T01:31:53.803Z,6.50
2019-05-13T01:34:23.554Z,5.08
2019-05-13T01:36:53.583Z,5.35
2019-05-13T01:39:24.303Z,7.70
2019-05-13T01:41:54.221Z,6.17
2019-05-13T01:44:24.434Z,4.67
2019-05-13T01:46:53.849Z,6.20
2019-05-13T01:49:24.137Z,7.95
2019-05-13T01:51:54.191Z,6.78
2019-05-13T01:54:24.653Z,9.35
2019-05-13T01:56:54.028Z,5.70
2019-05-13T01:59:23.951Z,4.70
2019-05-13T02:01:54.077Z,4.78
2019-05-13T02:04:24.468Z,3.10
2019-05-13T02:06:54.343Z,5.15
2019-05-13T02:09:24.507Z,4.40
2019-05-13T02:11:53.991Z,8.70
2019-05-13T02:14:23.698Z,5.12
2019-05-13T02:16:53.595Z,8.43
2019-05-13T02:19:24.482Z,5.92
2019-05-13T02:21:54.290Z,9.33
2019-05-13T02:24:23.740Z,4.03
2019-05-13T02:26:54.329Z,3.70
2019-05-13T02:29:24.520Z,6.97
2019-05-13T02:31:56.168Z,4.40
2019-05-13T02:34:24.648Z,4.30
2019-05-13T02:36:53.992Z,3.58
2019-05-13T02:39:23.355Z,5.37
2019-05-13T02:41:52.962Z,4.47
2019-05-13T02:44:22.740Z,6.17
2019-05-13T02:46:52.574Z,4.17
2019-05-13T02:49:23.127Z,7.62
2019-05-13T02:51:54.660Z,5.67
2019-05-13T02:54:23.387Z,3.20
2019-05-13T02:56:52.793Z,6.85
2019-05-13T02:59:22.824Z,4.67
2019-05-13T03:01:53.337Z,5.55
2019-05-13T03:04:23.507Z,8.93
2019-05-13T03:06:52.942Z,8.55
2019-05-13T03:09:23.070Z,7.20
2019-05-13T03:11:53.635Z,5.90
2019-05-13T03:14:24.137Z,7.10
2019-05-13T03:16:55.071Z,5.72
2019-05-13T03:19:24.181Z,5.05
2019-05-13T03:21:53.463Z,4.62
2019-05-13T03:24:23.167Z,6.58
2019-05-13T03:26:53.355Z,6.55
2019-05-13T03:29:22.807Z,10.13
2019-05-13T03:31:55.867Z,4.00
2019-05-13T03:34:26.273Z,6.22
2019-05-13T03:36:56.691Z,7.78
2019-05-13T03:39:24.577Z,6.40
2019-05-13T03:41:54.635Z,6.80
2019-05-13T03:44:24.048Z,10.60
2019-05-13T03:46:53.356Z,5.00
2019-05-13T03:49:23.485Z,3.70
2019-05-13T03:51:53.485Z,5.50
2019-05-13T03:54:22.976Z,6.67
2019-05-13T03:56:53.107Z,5.15
2019-05-13T03:59:22.756Z,4.87
2019-05-13T04:01:52.695Z,8.78
2019-05-13T04:04:23.320Z,4.35
2019-05-13T04:06:53.199Z,9.75
2019-05-13T04:09:31.048Z,8.73
2019-05-13T04:11:53.468Z,5.55
2019-05-13T04:14:23.331Z,6.42
2019-05-13T04:16:53.271Z,11.73
2019-05-13T04:19:23.437Z,13.88
2019-05-13T04:21:53.023Z,8.38
2019-05-13T04:24:23.094Z,11.40
2019-05-13T04:26:53.462Z,3.27
2019-05-13T04:29:23.553Z,7.33
2019-05-13T04:31:53.364Z,4.53
2019-05-13T04:34:23.167Z,6.08
2019-05-13T04:36:52.546Z,6.55
2019-05-13T04:39:40.525Z,5.20
2019-05-13T04:41:53.053Z,9.10
2019-05-13T04:44:23.987Z,6.42
2019-05-13T04:46:53.520Z,10.63
2019-05-13T04:49:23.560Z,30.45
2019-05-13T04:51:52.675Z,9.70
2019-05-13T04:54:22.783Z,8.20
2019-05-13T04:56:52.698Z,8.05
2019-05-13T04:59:22.900Z,4.10
2019-05-13T05:02:05.215Z,11.43
2019-05-13T05:04:52.248Z,7.78
2019-05-13T05:07:23.624Z,10.60
2019-05-13T05:10:21.287Z,7.87
2019-05-13T05:12:57.730Z,8.68
2019-05-13T05:16:03.003Z,10.05
2019-05-13T05:18:43.973Z,9.93
2019-05-13T05:21:22.332Z,8.65
2019-05-13T05:23:57.743Z,6.90
2019-05-13T05:26:49.356Z,6.37
2019-05-13T05:29:27.377Z,7.58
2019-05-13T05:32:21.269Z,13.80
2019-05-13T05:35:26.366Z,16.05
2019-05-13T05:38:26.059Z,5.15
2019-05-13T05:40:54.645Z,13.55
2019-05-13T05:43:23.893Z,12.82
2019-05-13T05:45:53.809Z,8.58
2019-05-13T05:48:23.311Z,7.05
2019-05-13T05:50:53.047Z,13.05
2019-05-13T05:53:22.287Z,7.12
2019-05-13T05:55:51.852Z,9.70
2019-05-13T05:58:22.885Z,6.80
2019-05-13T06:00:52.164Z,11.78
2019-05-13T06:03:21.880Z,12.00
2019-05-13T06:05:51.435Z,9.33
2019-05-13T06:08:22.181Z,11.08
2019-05-13T06:10:53.856Z,11.90
2019-05-13T06:13:22.747Z,14.28
2019-05-13T06:15:51.978Z,8.00
2019-05-13T06:18:22.164Z,10.63
2019-05-13T06:20:51.565Z,8.00
2019-05-13T06:23:22.222Z,12.45
2019-05-13T06:25:52.655Z,16.27
2019-05-13T06:28:22.170Z,7.25
2019-05-13T06:30:52.126Z,8.53
2019-05-13T06:33:21.456Z,14.10
2019-05-13T06:35:52.110Z,10.65
2019-05-13T06:38:22.522Z,8.85
2019-05-13T06:41:02.386Z,10.48
2019-05-13T06:43:22.796Z,9.10
2019-05-13T06:45:52.105Z,11.93
2019-05-13T06:48:23.110Z,11.05
2019-05-13T06:50:52.660Z,10.80
2019-05-13T06:53:21.928Z,6.53
2019-05-13T06:55:52.266Z,9.50
2019-05-13T06:58:22.404Z,8.98
2019-05-13T07:00:51.837Z,12.63
2019-05-13T07:03:21.981Z,7.83
2019-05-13T07:05:52.472Z,12.37
2019-05-13T07:08:22.929Z,11.75
2019-05-13T07:10:51.946Z,8.88
2019-05-13T07:13:21.951Z,11.48
2019-05-13T07:15:52.176Z,15.00
2019-05-13T07:18:21.965Z,10.60
2019-05-13T07:20:53.044Z,11.93
2019-05-13T07:23:22.492Z,8.20
2019-05-13T07:25:52.602Z,9.08
2019-05-13T07:28:22.097Z,5.55
2019-05-13T07:30:51.674Z,8.30
2019-05-13T07:33:21.484Z,10.13
2019-05-13T07:35:57.171Z,10.13
2019-05-13T07:38:22.249Z,10.85
2019-05-13T07:40:54.677Z,9.43
2019-05-13T07:43:23.926Z,9.08
2019-05-13T07:45:53.102Z,10.45
2019-05-13T07:48:27.574Z,11.10
2019-05-13T07:50:59.932Z,9.00
2019-05-13T07:53:23.801Z,13.22
2019-05-13T07:55:52.994Z,10.43
2019-05-13T07:58:22.917Z,9.88
2019-05-13T08:00:52.467Z,12.00
2019-05-13T08:03:21.694Z,9.78
2019-05-13T08:05:51.381Z,7.80
2019-05-13T08:08:22.045Z,13.58
2019-05-13T08:10:51.951Z,12.50
2019-05-13T08:13:22.553Z,9.33
2019-05-13T08:15:54.489Z,6.28
2019-05-13T08:18:22.774Z,11.80
2019-05-13T08:20:52.562Z,5.67
2019-05-13T08:23:21.909Z,9.25
2019-05-13T08:25:51.499Z,10.95
2019-05-13T08:28:22.586Z,5.12
2019-05-13T08:30:51.917Z,7.62
2019-05-13T08:33:22.685Z,7.15
2019-05-13T08:35:54.106Z,6.12
2019-05-13T08:38:23.145Z,5.45
2019-05-13T08:40:52.373Z,7.40
2019-05-13T08:43:22.551Z,5.72
2019-05-13T08:45:55.490Z,8.48
2019-05-13T08:48:22.908Z,7.95
2019-05-13T08:50:52.343Z,9.00
2019-05-13T08:53:21.409Z,5.83
2019-05-13T08:55:51.762Z,6.45
2019-05-13T08:58:21.830Z,6.67
2019-05-13T09:00:53.194Z,7.42
2019-05-13T09:03:22.582Z,7.10
2019-05-13T09:05:52.325Z,6.37
2019-05-13T09:08:22.432Z,7.67
2019-05-13T09:10:53.180Z,6.08
2019-05-13T09:13:22.611Z,10.48
2019-05-13T09:15:51.911Z,7.50
2019-05-13T09:18:22.763Z,5.17
2019-05-13T09:20:52.210Z,5.17
2019-05-13T09:23:22.237Z,4.40
2019-05-13T09:25:52.361Z,7.10
2019-05-13T09:28:22.128Z,5.55
2019-05-13T09:30:53.186Z,6.37
2019-05-13T09:33:22.784Z,4.42
2019-05-13T09:35:53.603Z,6.72
2019-05-13T09:38:22.781Z,6.05
2019-05-13T09:40:52.903Z,6.80
2019-05-13T09:43:22.717Z,5.00
2019-05-13T09:45:52.521Z,4.97
2019-05-13T09:48:22.626Z,3.00
2019-05-13T09:50:52.250Z,3.72
2019-05-13T09:53:22.403Z,6.30
2019-05-13T09:55:52.349Z,3.30
2019-05-13T09:58:22.540Z,4.58
2019-05-13T10:00:53.045Z,5.37
2019-05-13T10:03:28.836Z,4.65
2019-05-13T10:05:53.497Z,4.35
2019-05-13T10:08:22.790Z,5.10
2019-05-13T10:10:52.931Z,3.85
2019-05-13T10:13:23.294Z,2.87
2019-05-13T10:15:52.844Z,2.60
2019-05-13T10:18:22.388Z,5.90
2019-05-13T10:20:59.287Z,2.72
2019-05-13T10:23:28.728Z,3.60
2019-05-13T10:26:03.787Z,2.72
2019-05-13T10:28:33.067Z,4.97
2019-05-13T10:31:02.519Z,2.87
2019-05-13T10:33:32.331Z,5.40
2019-05-13T10:36:03.487Z,5.53
2019-05-13T10:38:32.808Z,6.25
2019-05-13T10:41:03.184Z,3.92
2019-05-13T10:43:41.465Z,2.62
2019-05-13T10:46:12.799Z,2.58
2019-05-13T10:48:41.715Z,3.80
2019-05-13T10:51:13.156Z,3.92
2019-05-13T10:53:42.797Z,3.15
2019-05-13T10:56:12.144Z,4.35
2019-05-13T10:58:42.976Z,5.20
2019-05-13T11:01:12.168Z,4.35
2019-05-13T11:06:12.496Z,4.03
2019-05-13T11:08:42.503Z,4.42
2019-05-13T11:11:13.040Z,3.85
2019-05-13T11:13:56.354Z,3.50
2019-05-13T11:16:13.631Z,5.05
2019-05-13T11:18:42.939Z,2.30
2019-05-13T11:21:12.989Z,2.42
2019-05-13T11:23:42.694Z,6.40
2019-05-13T11:26:12.878Z,2.80
2019-05-13T11:28:43.067Z,5.17
2019-05-13T11:31:12.520Z,2.35
2019-05-13T11:33:42.479Z,1.22
2019-05-13T11:36:12.871Z,2.55
2019-05-13T11:38:43.256Z,2.72
2019-05-13T11:41:12.886Z,2.55
2019-05-13T11:43:42.491Z,6.80
2019-05-13T11:46:11.825Z,2.92
2019-05-13T11:48:42.521Z,4.70
2019-05-13T11:51:13.144Z,3.27
2019-05-13T11:53:42.473Z,4.53
2019-05-13T11:56:12.189Z,3.85
2019-05-13T11:58:43.192Z,2.58
2019-05-13T12:01:12.650Z,3.02
2019-05-13T12:03:43.563Z,2.47
2019-05-13T12:06:12.496Z,2.05
2019-05-13T12:08:50.203Z,2.35
2019-05-13T12:11:14.051Z,1.30
2019-05-13T12:13:43.555Z,2.05
2019-05-13T12:16:13.055Z,2.40
2019-05-13T12:18:43.825Z,4.40
2019-05-13T12:21:13.037Z,3.17
2019-05-13T12:23:42.898Z,2.52
2019-05-13T12:26:12.954Z,2.20
2019-05-13T12:28:42.457Z,2.62
2019-05-13T12:31:12.166Z,1.50
2019-05-13T12:33:44.047Z,4.20
2019-05-13T12:36:18.075Z,1.57
2019-05-13T12:38:44.362Z,2.40
2019-05-13T12:41:14.041Z,3.40
2019-05-13T12:43:43.166Z,2.60
2019-05-13T12:46:12.659Z,2.30
2019-05-13T12:48:41.955Z,1.57
2019-05-13T12:51:13.220Z,2.62
2019-05-13T12:53:43.468Z,3.42
2019-05-13T12:56:13.024Z,1.52
2019-05-13T12:58:42.329Z,1.98
2019-05-13T13:01:12.802Z,2.17
2019-05-13T13:03:42.219Z,2.33
2019-05-13T13:06:27.182Z,2.55
2019-05-13T13:08:48.550Z,2.15
2019-05-13T13:11:13.522Z,3.30
2019-05-13T13:13:58.138Z,6.70
2019-05-13T13:16:13.611Z,2.12
2019-05-13T13:18:43.678Z,2.67
2019-05-13T13:21:14.481Z,3.80
2019-05-13T13:23:44.211Z,2.42
2019-05-13T13:26:15.911Z,1.50
2019-05-13T13:28:44.185Z,2.40
2019-05-13T13:31:13.445Z,3.30
2019-05-13T13:33:44.584Z,2.83
2019-05-13T13:36:15.671Z,2.17
2019-05-13T13:38:44.691Z,2.15
2019-05-13T13:41:22.394Z,1.77
2019-05-13T13:43:44.899Z,1.70
2019-05-13T13:46:32.640Z,2.17
2019-05-13T13:48:44.843Z,2.37
2019-05-13T13:51:14.625Z,2.22
2019-05-13T13:53:44.836Z,2.77
2019-05-13T13:56:14.962Z,1.65
2019-05-13T13:58:44.533Z,4.35
2019-05-13T14:01:18.583Z,2.95
2019-05-13T14:03:45.935Z,2.87
2019-05-13T14:06:26.943Z,4.33
2019-05-13T14:07:12.862Z,6.65
2019-05-13T14:08:46.383Z,2.83
2019-05-13T14:11:15.553Z,3.52
2019-05-13T14:13:44.795Z,3.47
2019-05-13T14:16:24.897Z,1.67
2019-05-13T14:18:45.106Z,2.10
2019-05-13T14:21:14.192Z,3.52
2019-05-13T14:23:43.619Z,3.58
2019-05-13T14:26:12.935Z,3.55
2019-05-13T14:28:42.194Z,3.58
2019-05-13T14:31:13.330Z,1.95
2019-05-13T14:33:42.539Z,3.30
2019-05-13T14:36:12.357Z,1.45
2019-05-13T14:38:41.697Z,3.00
2019-05-13T14:41:12.443Z,1.77
2019-05-13T14:43:41.813Z,1.30
2019-05-13T14:46:12.633Z,2.25
2019-05-13T14:48:43.304Z,2.33
2019-05-13T14:51:12.666Z,2.17
2019-05-13T14:54:02.732Z,2.70
2019-05-13T14:56:32.372Z,1.42
2019-05-13T14:59:02.755Z,2.67
2019-05-13T15:01:32.437Z,1.72
2019-05-13T15:04:02.856Z,4.08
2019-05-13T15:06:32.847Z,3.37
2019-05-13T15:09:02.239Z,1.82
2019-05-13T15:11:32.416Z,2.25
2019-05-13T15:14:02.542Z,2.25
2019-05-13T15:16:31.967Z,1.95
2019-05-13T15:19:01.703Z,3.08
2019-05-13T15:21:32.097Z,1.90
2019-05-13T15:24:02.259Z,1.87
2019-05-13T15:26:31.664Z,1.98
2019-05-13T15:29:04.691Z,2.37
2019-05-13T15:31:31.874Z,3.08
2019-05-13T15:34:02.566Z,3.20
2019-05-13T15:36:31.804Z,2.37
2019-05-13T15:39:01.549Z,2.00
2019-05-13T15:41:30.783Z,1.72
2019-05-13T15:44:03.221Z,1.32
2019-05-13T15:46:32.293Z,3.05
2019-05-13T15:49:01.762Z,2.47
2019-05-13T15:51:31.568Z,4.25
2019-05-13T15:54:02.286Z,3.20
2019-05-13T15:56:31.780Z,2.37
2019-05-13T15:59:01.920Z,1.85
2019-05-13T16:01:31.357Z,1.98
2019-05-13T16:04:02.397Z,2.52
2019-05-13T16:06:32.484Z,2.80
2019-05-13T16:09:02.776Z,4.67
2019-05-13T16:11:32.724Z,1.92
2019-05-13T16:14:02.265Z,1.87
2019-05-13T16:16:32.445Z,4.40
2019-05-13T16:19:01.771Z,2.33
2019-05-13T16:21:32.003Z,1.82
2019-05-13T16:24:02.591Z,1.75
2019-05-13T16:26:32.057Z,3.20
2019-05-13T16:29:02.263Z,3.83
2019-05-13T16:31:31.975Z,6.22
2019-05-13T16:34:01.839Z,2.00
2019-05-13T16:36:31.456Z,2.02
2019-05-13T16:39:02.510Z,2.15
2019-05-13T16:41:31.906Z,2.58
2019-05-13T16:44:01.751Z,3.52
2019-05-13T16:46:31.551Z,3.27
2019-05-13T16:49:01.417Z,3.30
2019-05-13T16:51:31.721Z,2.87
2019-05-13T16:54:01.083Z,3.35
2019-05-13T16:56:32.823Z,2.92
2019-05-13T16:59:01.592Z,2.77
2019-05-13T17:01:30.922Z,1.95
2019-05-13T17:04:02.029Z,2.95
2019-05-13T17:06:32.160Z,2.87
2019-05-13T17:09:02.153Z,2.20
2019-05-13T17:11:32.114Z,3.67
2019-05-13T17:14:02.340Z,2.02
2019-05-13T17:16:32.303Z,1.50
2019-05-13T17:19:01.574Z,2.33
2019-05-13T17:21:31.638Z,2.58
2019-05-13T17:24:01.557Z,1.72
2019-05-13T17:26:32.720Z,2.22
2019-05-13T17:29:01.711Z,2.85
2019-05-13T17:31:32.573Z,3.02
2019-05-13T17:34:01.838Z,3.20
2019-05-13T17:36:32.540Z,2.62
2019-05-13T17:39:02.008Z,3.37
2019-05-13T17:41:32.126Z,2.30
2019-05-13T17:44:02.487Z,4.33
2019-05-13T17:46:32.605Z,4.33
2019-05-13T17:49:02.183Z,1.75
2019-05-13T17:51:31.403Z,2.45
2019-05-13T17:54:01.417Z,2.22
2019-05-13T17:56:32.298Z,1.67
2019-05-13T17:59:01.254Z,3.35
2019-05-13T18:01:31.694Z,3.27
2019-05-13T18:04:02.449Z,2.52
2019-05-13T18:06:31.981Z,2.95
2019-05-13T18:09:01.320Z,2.12
2019-05-13T18:11:30.570Z,2.83
2019-05-13T18:14:01.303Z,1.57
2019-05-13T18:16:32.435Z,2.15
2019-05-13T18:19:02.099Z,2.12
2019-05-13T18:21:32.585Z,2.40
2019-05-13T18:24:01.653Z,1.65
2019-05-13T18:26:31.967Z,2.55
2019-05-13T18:29:02.005Z,2.33
2019-05-13T18:31:31.360Z,1.17
2019-05-13T18:34:01.577Z,1.30
2019-05-13T18:36:31.796Z,5.08
2019-05-13T18:39:01.633Z,1.92
2019-05-13T18:41:31.784Z,4.08
2019-05-13T18:44:02.214Z,3.00
2019-05-13T18:46:32.319Z,2.83
2019-05-13T18:49:02.396Z,5.40
2019-05-13T18:51:31.892Z,2.90
2019-05-13T18:54:04.311Z,4.50
2019-05-13T18:56:36.157Z,2.22
2019-05-13T18:59:09.363Z,3.87
2019-05-13T19:01:42.769Z,2.17
2019-05-13T19:04:15.323Z,2.20
2019-05-13T19:06:48.385Z,2.08
2019-05-13T19:09:19.219Z,2.65
2019-05-13T19:11:51.516Z,1.80
2019-05-13T19:14:27.947Z,2.58
2019-05-13T19:17:03.676Z,2.08
2019-05-13T19:19:38.745Z,5.55
2019-05-13T19:22:13.622Z,4.50
2019-05-13T19:24:51.646Z,1.40
2019-05-13T19:27:27.699Z,2.42
2019-05-13T19:30:06.134Z,1.52
2019-05-13T19:32:45.100Z,4.90
2019-05-13T19:36:12.716Z,6.12
2019-05-13T19:38:53.389Z,1.80
2019-05-13T19:41:31.397Z,2.58
2019-05-13T19:44:06.395Z,3.15
2019-05-13T19:46:43.902Z,2.17
2019-05-13T19:49:29.662Z,2.15
2019-05-13T19:52:02.176Z,1.90
2019-05-13T19:54:42.187Z,2.35
2019-05-13T19:57:21.294Z,3.47
2019-05-13T20:00:01.195Z,2.05
2019-05-13T20:02:39.070Z,5.15
2019-05-13T20:05:14.111Z,7.20
2019-05-13T20:07:48.821Z,2.80
2019-05-13T20:10:23.569Z,3.60
2019-05-13T20:12:55.836Z,3.55
2019-05-13T20:15:31.372Z,4.62
2019-05-13T20:21:53.427Z,4.65
2019-05-13T20:24:24.438Z,3.60
2019-05-13T20:26:57.296Z,4.37
2019-05-13T20:29:29.527Z,2.17
2019-05-13T20:32:01.376Z,3.27
2019-05-13T20:34:35.931Z,2.15
2019-05-13T20:39:42.268Z,1.00
2019-05-13T20:42:12.784Z,2.20
2019-05-13T20:44:43.637Z,1.30
2019-05-13T20:47:13.101Z,2.62
2019-05-13T20:49:42.911Z,3.35
2019-05-13T20:52:15.146Z,4.33
2019-05-13T20:54:44.269Z,1.12
2019-05-13T20:57:15.055Z,5.03
2019-05-13T20:59:45.193Z,2.02
2019-05-13T21:02:14.763Z,2.00
2019-05-13T21:04:44.384Z,2.20
2019-05-13T21:07:13.765Z,1.57
2019-05-13T21:09:43.299Z,1.80
2019-05-13T21:12:12.758Z,1.90
2019-05-13T21:14:42.046Z,3.45
2019-05-13T21:17:12.217Z,2.20
2019-05-13T21:19:42.895Z,2.70
2019-05-13T21:22:12.420Z,2.90
2019-05-13T21:24:41.811Z,2.12
2019-05-13T21:27:11.965Z,1.10
2019-05-13T21:29:41.627Z,2.85
2019-05-13T21:32:11.799Z,2.60
2019-05-13T21:34:41.227Z,1.00
2019-05-13T21:37:11.503Z,2.08
2019-05-13T21:39:41.334Z,3.15
2019-05-13T21:42:11.491Z,2.60
2019-05-13T21:44:42.042Z,1.55
2019-05-13T21:47:11.519Z,1.85
2019-05-13T21:49:42.329Z,2.70
2019-05-13T21:52:11.876Z,3.92
2019-05-13T21:54:42.192Z,1.65
2019-05-13T21:57:11.695Z,4.58
2019-05-13T21:59:41.514Z,1.07
2019-05-13T22:02:11.223Z,4.55
2019-05-13T22:04:41.230Z,1.55
2019-05-13T22:07:12.184Z,1.72
2019-05-13T22:09:42.263Z,2.30
2019-05-13T22:12:11.990Z,2.33
2019-05-13T22:14:41.407Z,1.85
2019-05-13T22:17:12.299Z,2.17
2019-05-13T22:19:42.031Z,1.80
2019-05-13T22:22:11.712Z,2.47
2019-05-13T22:24:41.875Z,1.60
2019-05-13T22:27:13.290Z,1.02
2019-05-13T22:29:42.441Z,3.25
2019-05-13T22:32:11.868Z,1.92
2019-05-13T22:34:41.948Z,3.00
2019-05-13T22:37:11.785Z,4.03
2019-05-13T22:39:42.145Z,1.92
2019-05-13T22:42:12.411Z,2.37
2019-05-13T22:44:41.967Z,1.07
2019-05-13T22:47:13.294Z,1.57
2019-05-13T22:49:41.844Z,1.45
2019-05-13T22:52:11.484Z,1.42
2019-05-13T22:54:41.185Z,0.72
2019-05-13T22:57:11.977Z,1.25
2019-05-13T22:59:41.630Z,2.47
2019-05-13T23:02:11.037Z,1.12
2019-05-13T23:04:41.864Z,1.90
2019-05-13T23:07:11.771Z,2.40
2019-05-13T23:09:41.658Z,3.17
2019-05-13T23:12:12.289Z,1.55
2019-05-13T23:14:41.642Z,3.58
2019-05-13T23:17:12.540Z,1.50
2019-05-13T23:19:41.858Z,6.58
2019-05-13T23:22:12.110Z,2.02
2019-05-13T23:24:41.998Z,2.75
2019-05-13T23:27:11.258Z,2.70
2019-05-13T23:29:41.248Z,4.90
2019-05-13T23:32:12.003Z,2.10
2019-05-13T23:34:42.237Z,2.60
2019-05-13T23:37:11.686Z,1.80
2019-05-13T23:39:41.590Z,3.08
2019-05-13T23:42:12.278Z,2.25
2019-05-13T23:44:41.710Z,5.25
2019-05-13T23:47:11.598Z,2.47
2019-05-13T23:49:42.162Z,3.37
2019-05-13T23:52:12.001Z,4.35
2019-05-13T23:54:42.442Z,3.47
2019-05-13T23:57:12.039Z,1.50
2019-05-13T23:59:42.063Z,2.95
